Ana Sayfa
METAR-TAF:

METAR-TAF

Havaalanları :

Somerset Airport

Somerville, New Jersey, Amerika Birleşik Devletleri

Enlem: 40-37-26N, Boylam: 074-40-10W, yükseklik: 32 m

Güncel hava durumu gözlemi

Rapor saat 04:53 UTC de 43 dakika önce yapıldı.
Rüzgar kuzey/kuzeybatıdan 15 kt ve 26 kt'a kadar ani rüzgarlar
Sıcaklık 11°C
Nem 37%
Basınç 1004 hPa
Görüş mesafesi: 16.1 km
12000 ft yükseklikte az bulutlu

METAR: KSMQ 030453Z AUTO 33015G26KT 10SM FEW120 11/M03 A2964 RMK AO2 PK WND 34026/0451 SLP039 T01061028 401440033

Saat: 01:36 (05:36 UTC)


TAF: eksik

4.000'den fazla havaalanı için hava durumu gözlemleri ve tahminleri (METAR ve TAF raporları).

Kullanılabilir istasyonlar harita üzerinde sarı ve kırmızı noktalarla gösterilir.

İstasyonun adını görmek için fareyi noktanın üzerinde gezdirin.

Sonrasında hava gözlem ve tahminlerini görmek için tıklayın.

Haritayı değiştirmek için: yaklaştırmak için siyah artı işaretli yeşil düğmeye ve uzaklaştırmak için de eksi işaretli düğmeye hızla tıklayın; bitişik haritalar için yeşil okları kullanın.


METAR-TAF: